Veuillez saisir l'adresse e-mail associée à votre compte d'utilisateur. Un code de vérification vous sera adressé. Lorsque vous le recevrez, vous pourrez choisir un nouveau mot de passe

METAR TAF

[Source: ADDS]
METAR
LFCR 011200Z AUTO 13013KT 9999 BKN027 OVC032 10/04 Q1016 =
LFBA 011200Z AUTO 10012KT 070V130 9999 BKN041 OVC120 17/09 Q1014 =
LFSL 011200Z AUTO 12006KT 060V190 9999 FEW047 16/04 Q1015 =
LFLW 011200Z AUTO 15007KT 110V190 9999 ////// 13/03 Q1015 =
TAF
SR / SS: 05:34 / 18:21 UTC (LFCC 2020-04-01)